createdAt,value
2023-04-12T00:01:41.450Z,101161.00
2023-04-12T00:04:11.084Z,101161.97
2023-04-12T00:06:40.319Z,101171.41
2023-04-12T00:09:08.832Z,101166.28
2023-04-12T00:11:36.849Z,101168.94
2023-04-12T00:14:04.684Z,101165.53
2023-04-12T00:16:32.938Z,101161.34
2023-04-12T00:19:01.842Z,101175.19
2023-04-12T00:21:31.125Z,101163.19
2023-04-12T00:23:59.260Z,101161.47
2023-04-12T00:26:27.317Z,101167.50
2023-04-12T00:28:55.493Z,101166.47
2023-04-12T00:31:23.848Z,101174.41
2023-04-12T00:33:51.819Z,101177.09
2023-04-12T00:36:19.911Z,101190.84
2023-04-12T00:38:49.424Z,101194.88
2023-04-12T00:41:19.230Z,101198.28
2023-04-12T00:43:47.406Z,101193.81
2023-04-12T00:46:17.632Z,101185.03
2023-04-12T00:48:48.053Z,101177.03
2023-04-12T00:51:18.225Z,101176.00
2023-04-12T00:53:46.481Z,101171.56
2023-04-12T00:56:15.706Z,101174.03
2023-04-12T00:58:43.612Z,101172.31
2023-04-12T01:01:11.578Z,101173.22
2023-04-12T01:03:53.999Z,101174.03
2023-04-12T01:06:29.844Z,101165.53
2023-04-12T01:09:04.801Z,101175.88
2023-04-12T01:11:39.620Z,101156.06
2023-04-12T01:14:12.111Z,101147.38
2023-04-12T01:16:46.269Z,101139.56
2023-04-12T01:19:30.838Z,101129.19
2023-04-12T01:22:13.758Z,101126.47
2023-04-12T01:24:53.046Z,101120.13
2023-04-12T01:27:35.851Z,101117.38
2023-04-12T01:30:07.456Z,101116.38
2023-04-12T01:32:36.757Z,101109.41
2023-04-12T01:35:07.895Z,101122.41
2023-04-12T01:37:36.586Z,101109.34
2023-04-12T01:40:06.211Z,101116.94
2023-04-12T01:42:35.555Z,101102.88
2023-04-12T01:45:04.848Z,101110.78
2023-04-12T01:47:34.085Z,101103.84
2023-04-12T01:50:13.032Z,101108.91
2023-04-12T01:52:46.479Z,101100.22
2023-04-12T01:55:16.123Z,101107.09
2023-04-12T01:57:48.273Z,101119.22
2023-04-12T02:00:18.034Z,101113.97
2023-04-12T02:02:46.123Z,101115.69
2023-04-12T02:05:14.277Z,101111.50
2023-04-12T02:07:43.056Z,101110.91
2023-04-12T02:10:15.096Z,101111.94
2023-04-12T02:12:42.987Z,101117.13
2023-04-12T02:15:13.299Z,101127.59
2023-04-12T02:17:41.171Z,101156.72
2023-04-12T02:20:11.935Z,101141.66
2023-04-12T02:22:39.843Z,101141.16
2023-04-12T02:25:08.451Z,101141.16
2023-04-12T02:27:36.344Z,101123.84
2023-04-12T02:30:05.278Z,101127.97
2023-04-12T02:32:43.951Z,101128.03
2023-04-12T02:35:12.673Z,101123.91
2023-04-12T02:37:41.253Z,101125.63
2023-04-12T02:40:11.654Z,101121.25
2023-04-12T02:42:40.531Z,101128.41
2023-04-12T02:45:09.514Z,101126.75
2023-04-12T02:47:40.765Z,101138.34
2023-04-12T02:50:09.729Z,101138.63
2023-04-12T02:52:37.661Z,101143.25
2023-04-12T02:55:06.309Z,101127.88
2023-04-12T02:57:34.278Z,101126.22
2023-04-12T03:00:06.672Z,101125.34
2023-04-12T03:02:34.609Z,101128.81
2023-04-12T03:05:04.997Z,101120.34
2023-04-12T03:07:33.022Z,101115.13
2023-04-12T03:10:00.964Z,101111.00
2023-04-12T03:12:30.017Z,101112.03
2023-04-12T03:14:57.981Z,101115.66
2023-04-12T03:17:25.948Z,101106.28
2023-04-12T03:19:53.885Z,101105.59
2023-04-12T03:22:23.453Z,101106.56
2023-04-12T03:24:51.764Z,101104.22
2023-04-12T03:27:19.638Z,101101.75
2023-04-12T03:29:47.753Z,101107.03
2023-04-12T03:32:15.821Z,101100.16
2023-04-12T03:34:43.708Z,101104.84
2023-04-12T03:37:11.655Z,101099.03
2023-04-12T03:39:41.134Z,101100.00
2023-04-12T03:42:13.599Z,101094.84
2023-04-12T03:44:49.847Z,101109.41
2023-04-12T03:47:17.678Z,101100.72
2023-04-12T03:49:54.201Z,101105.91
2023-04-12T03:52:33.155Z,101107.78
2023-04-12T03:55:02.473Z,101111.97
2023-04-12T03:57:30.382Z,101099.09
2023-04-12T03:59:58.192Z,101101.63
2023-04-12T04:02:26.430Z,101107.59
2023-04-12T04:04:54.658Z,101114.63
2023-04-12T04:07:23.711Z,101117.16
2023-04-12T04:09:51.682Z,101112.09
2023-04-12T04:12:21.033Z,101119.81
2023-04-12T04:14:48.867Z,101112.78
2023-04-12T04:17:16.727Z,101114.34
2023-04-12T04:19:44.633Z,101105.50
2023-04-12T04:22:13.945Z,101103.66
2023-04-12T04:24:42.750Z,101098.47
2023-04-12T04:27:10.937Z,101098.34
2023-04-12T04:29:44.500Z,101105.19
2023-04-12T04:32:12.632Z,101110.78
2023-04-12T04:34:40.807Z,101103.97
2023-04-12T04:37:08.669Z,101095.34
2023-04-12T04:39:36.593Z,101090.75
2023-04-12T04:42:06.667Z,101090.28
2023-04-12T04:44:36.230Z,101092.38
2023-04-12T04:47:08.667Z,101098.59
2023-04-12T04:49:37.399Z,101092.44
2023-04-12T04:52:06.431Z,101094.59
2023-04-12T04:54:34.232Z,101095.69
2023-04-12T04:57:03.067Z,101089.47
2023-04-12T04:59:31.247Z,101088.19
2023-04-12T05:01:59.161Z,101082.31
2023-04-12T05:04:28.463Z,101078.31
2023-04-12T05:06:56.488Z,101077.69
2023-04-12T05:09:24.380Z,101090.34
2023-04-12T05:11:52.173Z,101086.41
2023-04-12T05:14:20.436Z,101087.94
2023-04-12T05:16:48.369Z,101084.16
2023-04-12T05:19:16.417Z,101084.72
2023-04-12T05:21:45.670Z,101079.97
2023-04-12T05:24:13.543Z,101075.16
2023-04-12T05:26:41.712Z,101080.78
2023-04-12T05:29:09.677Z,101073.22
2023-04-12T05:31:37.531Z,101069.25
2023-04-12T05:34:05.447Z,101063.47
2023-04-12T05:36:33.548Z,101058.50
2023-04-12T05:39:02.755Z,101066.00
2023-04-12T05:41:31.345Z,101065.53
2023-04-12T05:43:59.252Z,101053.84
2023-04-12T05:46:27.327Z,101057.84
2023-04-12T05:48:55.410Z,101061.78
2023-04-12T05:51:37.763Z,101051.91
2023-04-12T05:54:10.733Z,101047.78
2023-04-12T05:56:38.835Z,101048.75
2023-04-12T05:59:06.762Z,101054.50
2023-04-12T06:01:35.007Z,101053.22
2023-04-12T06:04:04.234Z,101061.50
2023-04-12T06:06:32.300Z,101051.09
2023-04-12T06:09:01.151Z,101054.56
2023-04-12T06:11:30.488Z,101065.75
2023-04-12T06:13:58.459Z,101065.84
2023-04-12T06:16:26.473Z,101065.03
2023-04-12T06:18:54.499Z,101067.25
2023-04-12T06:21:22.608Z,101064.72
2023-04-12T06:23:50.483Z,101080.00
2023-04-12T06:26:18.935Z,101081.50
2023-04-12T06:28:48.288Z,101076.72
2023-04-12T06:31:16.980Z,101075.31
2023-04-12T06:33:45.001Z,101087.53
2023-04-12T06:36:14.690Z,101083.19
2023-04-12T06:38:43.208Z,101085.13
2023-04-12T06:41:11.714Z,101086.28
2023-04-12T06:43:39.619Z,101085.06
2023-04-12T06:46:09.246Z,101073.81
2023-04-12T06:48:37.110Z,101075.06
2023-04-12T06:51:05.257Z,101077.28
2023-04-12T06:53:35.076Z,101087.41
2023-04-12T06:56:05.330Z,101078.63
2023-04-12T06:58:33.176Z,101084.69
2023-04-12T07:01:06.651Z,101073.81
2023-04-12T07:03:36.064Z,101076.66
2023-04-12T07:06:17.269Z,101071.13
2023-04-12T07:08:49.666Z,101074.72
2023-04-12T07:11:21.589Z,101084.38
2023-04-12T07:13:50.185Z,101074.84
2023-04-12T07:16:18.496Z,101073.25
2023-04-12T07:18:48.459Z,101068.66
2023-04-12T07:21:17.727Z,101076.53
2023-04-12T07:23:46.660Z,101069.69
2023-04-12T07:26:14.543Z,101069.50
2023-04-12T07:28:42.421Z,101071.69
2023-04-12T07:31:10.555Z,101076.38
2023-04-12T07:33:41.356Z,101075.66
2023-04-12T07:36:13.019Z,101080.47
2023-04-12T07:38:40.911Z,101083.47
2023-04-12T07:41:09.169Z,101078.41
2023-04-12T07:43:37.094Z,101081.50
2023-04-12T07:46:08.525Z,101079.75
2023-04-12T07:48:36.765Z,101081.16
2023-04-12T07:51:05.280Z,101076.59
2023-04-12T07:53:34.585Z,101089.63
2023-04-12T07:56:04.962Z,101082.31
2023-04-12T07:58:34.293Z,101078.03
2023-04-12T08:01:02.272Z,101080.09
2023-04-12T08:03:30.375Z,101085.88
2023-04-12T08:05:58.358Z,101077.06
2023-04-12T08:08:26.330Z,101083.38
2023-04-12T08:10:55.666Z,101091.44
2023-04-12T08:13:23.654Z,101082.72
2023-04-12T08:15:51.611Z,101072.09
2023-04-12T08:18:19.672Z,101074.97
2023-04-12T08:20:49.289Z,101079.50
2023-04-12T08:23:17.684Z,101074.47
2023-04-12T08:25:45.545Z,101065.47
2023-04-12T08:28:14.883Z,101067.41
2023-04-12T08:30:43.991Z,101070.59
2023-04-12T08:33:11.886Z,101068.69
2023-04-12T08:35:40.201Z,101078.47
2023-04-12T08:40:21.864Z,101075.22
2023-04-12T08:42:49.626Z,101084.53
2023-04-12T08:45:17.535Z,101067.75
2023-04-12T08:47:46.652Z,101069.41
2023-04-12T08:50:14.764Z,101074.81
2023-04-12T08:52:43.955Z,101079.31
2023-04-12T08:55:12.983Z,101074.19
2023-04-12T08:57:43.172Z,101076.44
2023-04-12T09:00:13.139Z,101073.03
2023-04-12T09:02:43.369Z,101076.44
2023-04-12T09:05:11.702Z,101076.75
2023-04-12T09:07:39.622Z,101076.88
2023-04-12T09:10:08.453Z,101074.91
2023-04-12T09:12:36.387Z,101076.97
2023-04-12T09:15:10.603Z,101076.97
2023-04-12T09:17:38.929Z,101065.50
2023-04-12T09:20:25.687Z,101068.59
2023-04-12T09:22:55.617Z,101065.00
2023-04-12T09:25:41.425Z,101066.91
2023-04-12T09:28:24.339Z,101070.97
2023-04-12T09:30:53.990Z,101077.78
2023-04-12T09:33:23.357Z,101064.94
2023-04-12T09:35:51.456Z,101065.53
2023-04-12T09:38:19.575Z,101061.22
2023-04-12T09:40:47.613Z,101071.63
2023-04-12T09:43:15.875Z,101071.50
2023-04-12T09:45:43.825Z,101069.19
2023-04-12T09:48:21.848Z,101071.28
2023-04-12T09:50:49.817Z,101076.16
2023-04-12T09:53:19.470Z,101076.25
2023-04-12T09:55:50.179Z,101067.94
2023-04-12T09:58:21.362Z,101065.75
2023-04-12T10:00:50.289Z,101073.41
2023-04-12T10:03:21.514Z,101067.72
2023-04-12T10:05:49.941Z,101069.41
2023-04-12T10:08:18.337Z,101070.38
2023-04-12T10:10:46.844Z,101065.47
2023-04-12T10:13:16.081Z,101074.16
2023-04-12T10:15:46.586Z,101069.81
2023-04-12T10:18:15.768Z,101074.28
2023-04-12T10:20:47.033Z,101072.47
2023-04-12T10:23:14.986Z,101068.31
2023-04-12T10:25:44.197Z,101071.66
2023-04-12T10:28:16.513Z,101077.75
2023-04-12T10:30:44.556Z,101071.94
2023-04-12T10:33:14.780Z,101066.66
2023-04-12T10:36:00.233Z,101062.75
2023-04-12T10:38:35.878Z,101068.34
2023-04-12T10:41:18.782Z,101059.97
2023-04-12T10:43:47.478Z,101066.66
2023-04-12T10:46:49.699Z,101066.50
2023-04-12T10:49:18.600Z,101075.72
2023-04-12T10:52:18.308Z,101069.19
2023-04-12T10:54:46.820Z,101068.34
2023-04-12T10:57:47.308Z,101077.25
2023-04-12T11:00:16.449Z,101080.03
2023-04-12T11:03:12.759Z,101067.25
2023-04-12T11:06:20.022Z,101062.09
2023-04-12T11:08:58.404Z,101056.81
2023-04-12T11:11:27.544Z,101057.63
2023-04-12T11:13:59.268Z,101067.34
2023-04-12T11:16:27.254Z,101054.84
2023-04-12T11:18:55.649Z,101065.28
2023-04-12T11:21:23.750Z,101070.72
2023-04-12T11:23:53.745Z,101063.50
2023-04-12T11:26:26.086Z,101061.66
2023-04-12T11:28:55.944Z,101067.63
2023-04-12T11:31:24.558Z,101068.34
2023-04-12T11:33:52.705Z,101067.63
2023-04-12T11:36:20.737Z,101059.28
2023-04-12T11:38:50.342Z,101055.63
2023-04-12T11:41:18.711Z,101056.81
2023-04-12T11:43:49.205Z,101062.22
2023-04-12T11:46:18.363Z,101062.06
2023-04-12T11:48:47.025Z,101061.09
2023-04-12T11:51:21.529Z,101065.72
2023-04-12T11:53:54.398Z,101068.34
2023-04-12T11:56:22.581Z,101060.00
2023-04-12T11:58:52.185Z,101054.06
2023-04-12T12:01:21.561Z,101061.03
2023-04-12T12:03:50.406Z,101060.34
2023-04-12T12:06:20.633Z,101060.75
2023-04-12T12:08:50.836Z,101066.47
2023-04-12T12:11:19.286Z,101059.66
2023-04-12T12:13:48.323Z,101061.34
2023-04-12T12:16:18.633Z,101047.53
2023-04-12T12:18:52.504Z,101053.69
2023-04-12T12:21:21.735Z,101058.41
2023-04-12T12:23:50.922Z,101050.47
2023-04-12T12:26:22.759Z,101054.09
2023-04-12T12:28:52.459Z,101058.31
2023-04-12T12:31:23.111Z,101062.38
2023-04-12T12:33:57.032Z,101067.78
2023-04-12T12:36:32.257Z,101065.56
2023-04-12T12:39:07.049Z,101068.50
2023-04-12T12:41:35.564Z,101064.31
2023-04-12T12:44:03.600Z,101063.03
2023-04-12T12:49:06.066Z,101060.97
2023-04-12T12:51:34.073Z,101065.31
2023-04-12T12:54:02.237Z,101053.19
2023-04-12T12:56:30.297Z,101052.66
2023-04-12T12:58:58.345Z,101056.50
2023-04-12T13:01:27.632Z,101053.31
2023-04-12T13:03:58.879Z,101058.34
2023-04-12T13:06:28.143Z,101065.00
2023-04-12T13:08:56.626Z,101057.78
2023-04-12T13:11:24.704Z,101063.59
2023-04-12T13:13:52.640Z,101059.28
2023-04-12T13:16:20.647Z,101048.69
2023-04-12T13:18:48.728Z,101058.03
2023-04-12T13:21:18.002Z,101054.28
2023-04-12T13:23:46.105Z,101057.91
2023-04-12T13:26:14.002Z,101060.28
2023-04-12T13:28:41.885Z,101058.47
2023-04-12T13:31:09.811Z,101054.44
2023-04-12T13:33:37.771Z,101056.38
2023-04-12T13:36:06.189Z,101057.66
2023-04-12T13:38:35.772Z,101056.50
2023-04-12T13:41:04.059Z,101055.66
2023-04-12T13:43:31.971Z,101052.50
2023-04-12T13:46:00.704Z,101049.16
2023-04-12T13:48:28.979Z,101050.28
2023-04-12T13:50:56.869Z,101049.72
2023-04-12T13:53:24.848Z,101052.22
2023-04-12T13:55:54.092Z,101054.16
2023-04-12T13:58:21.972Z,101060.13
2023-04-12T14:00:49.977Z,101058.31
2023-04-12T14:03:18.046Z,101053.44
2023-04-12T14:05:45.888Z,101049.41
2023-04-12T14:08:13.715Z,101040.53
2023-04-12T14:10:41.701Z,101039.94
2023-04-12T14:13:11.068Z,101048.31
2023-04-12T14:15:38.942Z,101047.06
2023-04-12T14:18:06.944Z,101036.22
2023-04-12T14:20:34.899Z,101045.13
2023-04-12T14:23:02.813Z,101047.91
2023-04-12T14:25:31.199Z,101047.47
2023-04-12T14:27:59.080Z,101050.81
2023-04-12T14:30:28.477Z,101040.66
2023-04-12T14:32:56.390Z,101036.22
2023-04-12T14:35:24.556Z,101047.75
2023-04-12T14:37:52.424Z,101043.28
2023-04-12T14:40:20.566Z,101048.84
2023-04-12T14:42:48.766Z,101045.50
2023-04-12T14:45:17.473Z,101044.09
2023-04-12T14:47:46.776Z,101046.75
2023-04-12T14:50:14.921Z,101053.03
2023-04-12T14:52:42.846Z,101044.00
2023-04-12T14:55:11.770Z,101047.47
2023-04-12T14:57:40.061Z,101048.31
2023-04-12T15:00:13.400Z,101051.63
2023-04-12T15:02:41.797Z,101049.69
2023-04-12T15:05:11.828Z,101052.75
2023-04-12T15:07:39.822Z,101064.53
2023-04-12T15:10:09.132Z,101078.28
2023-04-12T15:12:37.366Z,101072.38
2023-04-12T15:15:06.621Z,101066.06
2023-04-12T15:17:35.199Z,101066.41
2023-04-12T15:20:09.076Z,101060.41
2023-04-12T15:22:38.563Z,101059.06
2023-04-12T15:25:07.843Z,101072.06
2023-04-12T15:27:35.708Z,101070.19
2023-04-12T15:30:04.936Z,101075.03
2023-04-12T15:32:36.528Z,101077.47
2023-04-12T15:35:18.740Z,101072.72
2023-04-12T15:37:55.611Z,101077.97
2023-04-12T15:40:24.602Z,101073.09
2023-04-12T15:42:52.618Z,101082.09
2023-04-12T15:45:20.654Z,101081.63
2023-04-12T15:47:48.666Z,101075.53
2023-04-12T15:50:16.644Z,101081.19
2023-04-12T15:52:44.483Z,101085.41
2023-04-12T15:55:16.947Z,101086.50
2023-04-12T15:57:44.957Z,101085.88
2023-04-12T16:00:23.876Z,101087.22
2023-04-12T16:02:56.286Z,101077.44
2023-04-12T16:05:26.666Z,101086.31
2023-04-12T16:07:56.563Z,101081.25
2023-04-12T16:10:26.106Z,101079.72
2023-04-12T16:12:55.483Z,101082.81
2023-04-12T16:15:23.823Z,101083.75
2023-04-12T16:17:55.592Z,101088.56
2023-04-12T16:20:24.302Z,101084.53
2023-04-12T16:22:55.157Z,101089.91
2023-04-12T16:25:24.211Z,101088.44
2023-04-12T16:27:53.613Z,101085.38
2023-04-12T16:30:22.788Z,101092.78
2023-04-12T16:32:52.159Z,101092.28
2023-04-12T16:35:20.098Z,101089.31
2023-04-12T16:37:48.519Z,101085.00
2023-04-12T16:40:17.304Z,101091.19
2023-04-12T16:42:45.866Z,101096.84
2023-04-12T16:45:15.575Z,101093.00
2023-04-12T16:47:43.931Z,101096.19
2023-04-12T16:50:13.477Z,101092.47
2023-04-12T16:52:41.970Z,101096.63
2023-04-12T16:55:12.318Z,101088.50
2023-04-12T16:57:41.202Z,101092.53
2023-04-12T17:00:27.915Z,101089.53
2023-04-12T17:02:57.430Z,101098.94
2023-04-12T17:05:25.519Z,101094.03
2023-04-12T17:07:55.151Z,101101.50
2023-04-12T17:10:26.129Z,101111.53
2023-04-12T17:12:56.659Z,101109.13
2023-04-12T17:15:26.055Z,101108.63
2023-04-12T17:17:55.475Z,101121.25
2023-04-12T17:20:24.844Z,101114.78
2023-04-12T17:22:53.248Z,101122.16
2023-04-12T17:25:21.403Z,101123.19
2023-04-12T17:27:51.739Z,101123.03
2023-04-12T17:30:19.741Z,101124.19
2023-04-12T17:32:48.621Z,101123.06
2023-04-12T17:35:17.904Z,101124.97
2023-04-12T17:37:48.062Z,101122.78
2023-04-12T17:40:16.355Z,101125.84
2023-04-12T17:42:45.073Z,101125.41
2023-04-12T17:45:14.865Z,101127.94
2023-04-12T17:47:43.876Z,101130.88
2023-04-12T17:50:12.469Z,101132.03
2023-04-12T17:52:40.628Z,101137.94
2023-04-12T17:55:12.547Z,101133.94
2023-04-12T17:57:40.586Z,101137.94
2023-04-12T18:00:11.772Z,101140.88
2023-04-12T18:02:40.364Z,101140.44
2023-04-12T18:05:09.115Z,101147.06
2023-04-12T18:07:37.123Z,101151.03
2023-04-12T18:10:05.446Z,101147.88
2023-04-12T18:12:34.669Z,101152.69
2023-04-12T18:15:03.530Z,101160.44
2023-04-12T18:17:31.839Z,101164.38
2023-04-12T18:20:02.431Z,101174.34
2023-04-12T18:22:31.008Z,101171.38
2023-04-12T18:24:58.874Z,101179.53
2023-04-12T18:27:26.814Z,101179.72
2023-04-12T18:29:56.571Z,101178.44
2023-04-12T18:32:24.542Z,101183.31
2023-04-12T18:34:52.726Z,101181.09
2023-04-12T18:37:20.801Z,101181.59
2023-04-12T18:39:50.088Z,101184.41
2023-04-12T18:42:19.774Z,101188.06
2023-04-12T18:44:47.643Z,101183.09
2023-04-12T18:47:17.640Z,101178.03
2023-04-12T18:49:45.803Z,101186.19
2023-04-12T18:52:13.707Z,101179.19
2023-04-12T18:54:41.712Z,101184.50
2023-04-12T18:57:09.715Z,101188.22
2023-04-12T18:59:37.740Z,101190.84
2023-04-12T19:02:05.763Z,101187.50
2023-04-12T19:04:36.115Z,101186.00
2023-04-12T19:07:04.053Z,101186.19
2023-04-12T19:09:32.047Z,101189.84
2023-04-12T19:11:59.931Z,101187.59
2023-04-12T19:14:30.347Z,101187.72
2023-04-12T19:16:58.158Z,101193.88
2023-04-12T19:19:25.971Z,101192.00
2023-04-12T19:21:55.965Z,101194.81
2023-04-12T19:24:23.842Z,101195.84
2023-04-12T19:26:51.810Z,101207.41
2023-04-12T19:29:19.920Z,101208.53
2023-04-12T19:31:49.129Z,101204.53
2023-04-12T19:34:18.044Z,101212.56
2023-04-12T19:36:46.175Z,101208.53
2023-04-12T19:39:15.648Z,101202.06
2023-04-12T19:41:43.568Z,101205.03
2023-04-12T19:44:11.994Z,101210.44
2023-04-12T19:46:39.938Z,101211.47
2023-04-12T19:49:08.509Z,101205.50
2023-04-12T19:51:36.542Z,101215.13
2023-04-12T19:54:04.748Z,101211.16
2023-04-12T19:56:34.066Z,101212.28
2023-04-12T19:59:02.650Z,101217.59
2023-04-12T20:01:30.561Z,101217.88
2023-04-12T20:03:58.586Z,101219.81
2023-04-12T20:06:28.770Z,101214.66
2023-04-12T20:08:56.967Z,101214.13
2023-04-12T20:11:25.086Z,101218.41
2023-04-12T20:13:54.975Z,101213.63
2023-04-12T20:16:24.233Z,101212.78
2023-04-12T20:18:56.183Z,101214.72
2023-04-12T20:21:24.530Z,101219.28
2023-04-12T20:23:52.437Z,101211.72
2023-04-12T20:26:21.290Z,101217.94
2023-04-12T20:28:49.624Z,101213.75
2023-04-12T20:31:19.405Z,101216.28
2023-04-12T20:33:47.401Z,101211.97
2023-04-12T20:36:16.676Z,101207.84
2023-04-12T20:38:45.519Z,101213.06
2023-04-12T20:41:13.507Z,101214.66
2023-04-12T20:45:54.240Z,101216.63
2023-04-12T20:48:22.189Z,101224.72
2023-04-12T20:50:52.797Z,101222.09
2023-04-12T20:53:21.067Z,101225.69
2023-04-12T20:55:49.027Z,101222.34
2023-04-12T20:58:17.931Z,101221.69
2023-04-12T21:00:46.809Z,101229.41
2023-04-12T21:03:16.380Z,101225.13
2023-04-12T21:05:46.070Z,101222.88
2023-04-12T21:08:14.013Z,101224.72
2023-04-12T21:10:42.773Z,101229.94
2023-04-12T21:13:11.944Z,101236.84
2023-04-12T21:15:40.431Z,101241.22
2023-04-12T21:18:08.419Z,101232.53
2023-04-12T21:20:38.228Z,101239.72
2023-04-12T21:23:07.439Z,101242.31
2023-04-12T21:25:35.584Z,101238.00
2023-04-12T21:28:03.712Z,101234.66
2023-04-12T21:30:32.290Z,101236.34
2023-04-12T21:33:02.339Z,101237.34
2023-04-12T21:35:31.159Z,101237.53
2023-04-12T21:38:02.743Z,101240.94
2023-04-12T21:40:30.657Z,101241.88
2023-04-12T21:42:58.474Z,101233.19
2023-04-12T21:45:27.393Z,101230.56
2023-04-12T21:47:55.488Z,101237.53
2023-04-12T21:50:23.556Z,101233.34
2023-04-12T21:52:51.461Z,101238.56
2023-04-12T21:55:21.412Z,101242.09
2023-04-12T21:57:49.296Z,101239.84
2023-04-12T22:00:18.299Z,101233.94
2023-04-12T22:02:46.546Z,101234.94
2023-04-12T22:05:14.537Z,101232.25
2023-04-12T22:07:42.480Z,101223.66
2023-04-12T22:10:12.039Z,101227.13
2023-04-12T22:12:42.352Z,101223.75
2023-04-12T22:15:13.609Z,101227.28
2023-04-12T22:17:41.471Z,101223.00
2023-04-12T22:20:11.058Z,101226.53
2023-04-12T22:22:39.264Z,101224.00
2023-04-12T22:25:12.000Z,101219.81
2023-04-12T22:27:42.163Z,101213.56
2023-04-12T22:30:11.876Z,101210.13
2023-04-12T22:32:40.362Z,101208.34
2023-04-12T22:35:10.163Z,101209.13
2023-04-12T22:37:38.961Z,101192.63
2023-04-12T22:40:11.747Z,101200.19
2023-04-12T22:42:46.105Z,101188.19
2023-04-12T22:45:14.773Z,101186.34
2023-04-12T22:47:43.361Z,101190.63
2023-04-12T22:50:12.917Z,101194.91
2023-04-12T22:52:41.990Z,101191.47
2023-04-12T22:55:12.711Z,101183.47
2023-04-12T22:57:42.179Z,101179.94
2023-04-12T23:00:15.764Z,101172.88
2023-04-12T23:02:46.109Z,101181.34
2023-04-12T23:05:14.517Z,101182.13
2023-04-12T23:07:43.527Z,101175.88
2023-04-12T23:10:12.236Z,101177.66
2023-04-12T23:12:41.681Z,101175.78
2023-04-12T23:15:10.691Z,101175.78
2023-04-12T23:17:38.683Z,101171.53
2023-04-12T23:20:10.801Z,101162.94
2023-04-12T23:22:57.220Z,101168.22
2023-04-12T23:25:37.972Z,101171.69
2023-04-12T23:28:13.484Z,101175.97
2023-04-12T23:30:44.400Z,101188.91
2023-04-12T23:33:13.056Z,101185.34
2023-04-12T23:35:41.665Z,101168.78
2023-04-12T23:38:10.606Z,101170.28
2023-04-12T23:40:38.572Z,101161.63
2023-04-12T23:43:09.036Z,101160.00
2023-04-12T23:45:37.115Z,101157.41
2023-04-12T23:48:06.919Z,101157.41
2023-04-12T23:50:35.064Z,101161.72
2023-04-12T23:53:03.697Z,101159.09
2023-04-12T23:55:31.767Z,101157.41
2023-04-12T23:57:59.678Z,101145.28
